createdAt,value
2022-08-14T00:03:20.219Z,20.15
2022-08-14T00:08:45.174Z,20.17
2022-08-14T00:13:52.977Z,20.11
2022-08-14T00:19:18.826Z,20.02
2022-08-14T00:24:28.180Z,20.10
2022-08-14T00:29:40.588Z,20.06
2022-08-14T00:34:47.111Z,20.14
2022-08-14T00:39:52.928Z,19.95
2022-08-14T00:44:57.528Z,19.98
2022-08-14T00:50:02.667Z,19.95
2022-08-14T00:55:09.313Z,19.95
2022-08-14T01:00:34.382Z,19.95
2022-08-14T01:05:41.868Z,20.03
2022-08-14T01:10:57.698Z,20.05
2022-08-14T01:16:04.545Z,20.06
2022-08-14T01:21:17.752Z,20.05
2022-08-14T01:26:35.124Z,20.04
2022-08-14T01:31:45.437Z,20.04
2022-08-14T01:36:54.392Z,20.06
2022-08-14T01:42:01.342Z,19.98
2022-08-14T01:47:21.686Z,20.05
2022-08-14T01:52:34.277Z,19.90
2022-08-14T01:58:18.164Z,19.80
2022-08-14T02:03:13.668Z,19.80
2022-08-14T02:08:22.466Z,19.75
2022-08-14T02:13:39.563Z,19.80
2022-08-14T02:18:46.611Z,19.83
2022-08-14T02:23:53.559Z,19.86
2022-08-14T02:29:00.537Z,19.77
2022-08-14T02:34:19.947Z,19.82
2022-08-14T02:39:26.147Z,19.82
2022-08-14T02:44:32.299Z,19.89
2022-08-14T02:49:42.988Z,19.99
2022-08-14T02:54:46.376Z,19.96
2022-08-14T02:59:52.418Z,20.00
2022-08-14T03:04:55.996Z,19.97
2022-08-14T03:10:27.484Z,19.94
2022-08-14T03:15:25.442Z,19.95
2022-08-14T03:20:30.610Z,19.87
2022-08-14T03:25:37.690Z,19.86
2022-08-14T03:30:43.879Z,19.90
2022-08-14T03:36:07.603Z,19.83
2022-08-14T03:41:14.584Z,19.80
2022-08-14T03:46:38.730Z,19.88
2022-08-14T03:51:42.428Z,19.90
2022-08-14T03:56:46.547Z,19.96
2022-08-14T04:02:01.167Z,20.00
2022-08-14T04:07:04.789Z,19.98
2022-08-14T04:12:13.527Z,20.02
2022-08-14T04:17:18.839Z,20.02
2022-08-14T04:22:23.983Z,19.99
2022-08-14T04:27:27.989Z,20.02
2022-08-14T04:32:58.391Z,20.05
2022-08-14T04:38:38.411Z,20.06
2022-08-14T04:43:40.296Z,20.15
2022-08-14T04:48:51.394Z,20.15
2022-08-14T04:54:00.485Z,20.26
2022-08-14T04:59:09.971Z,20.19
2022-08-14T05:04:16.272Z,20.28
2022-08-14T05:09:24.571Z,20.29
2022-08-14T05:14:43.050Z,20.42
2022-08-14T05:21:04.934Z,20.40
2022-08-14T05:25:14.992Z,20.41
2022-08-14T05:30:20.272Z,20.55
2022-08-14T05:35:24.967Z,20.65
2022-08-14T05:40:29.850Z,20.78
2022-08-14T05:45:35.746Z,20.87
2022-08-14T05:50:41.465Z,20.98
2022-08-14T05:55:45.324Z,21.04
2022-08-14T06:00:50.095Z,21.08
2022-08-14T06:05:57.784Z,21.36
2022-08-14T06:11:05.902Z,21.45
2022-08-14T06:16:09.664Z,21.42
2022-08-14T06:21:17.512Z,21.61
2022-08-14T06:26:22.438Z,21.46
2022-08-14T06:31:25.786Z,21.65
2022-08-14T06:36:30.540Z,21.57
2022-08-14T06:41:57.244Z,21.84
2022-08-14T06:46:56.559Z,21.79
2022-08-14T06:52:01.055Z,21.90
2022-08-14T06:57:05.115Z,21.72
2022-08-14T07:02:29.218Z,21.81
2022-08-14T07:07:39.192Z,21.91
2022-08-14T07:13:01.015Z,22.09
2022-08-14T07:18:08.918Z,22.09
2022-08-14T07:23:20.693Z,22.01
2022-08-14T07:28:27.679Z,21.90
2022-08-14T07:33:35.571Z,22.04
2022-08-14T07:38:41.413Z,21.97
2022-08-14T07:43:55.250Z,22.07
2022-08-14T07:48:59.864Z,22.08
2022-08-14T07:54:10.911Z,22.11
2022-08-14T07:59:14.673Z,22.28
2022-08-14T08:04:24.280Z,22.35
2022-08-14T08:09:33.050Z,22.60
2022-08-14T08:14:55.608Z,22.46
2022-08-14T08:19:59.795Z,22.23
2022-08-14T08:25:08.552Z,22.49
2022-08-14T08:30:17.006Z,22.60
2022-08-14T08:35:23.784Z,22.77
2022-08-14T08:40:30.961Z,22.61
2022-08-14T08:45:35.914Z,22.92
2022-08-14T08:55:45.048Z,23.34
2022-08-14T09:00:54.459Z,23.37
2022-08-14T09:06:01.094Z,23.60
2022-08-14T09:11:19.486Z,23.52
2022-08-14T09:16:28.273Z,23.68
2022-08-14T09:21:32.181Z,23.49
2022-08-14T09:26:37.627Z,23.95
2022-08-14T09:31:52.737Z,24.24
2022-08-14T09:37:18.309Z,24.41
2022-08-14T09:42:49.849Z,24.62
2022-08-14T09:47:56.230Z,24.20
2022-08-14T09:53:04.025Z,24.50
2022-08-14T09:58:19.654Z,24.49
2022-08-14T10:03:33.234Z,24.65
2022-08-14T10:08:45.243Z,24.80
2022-08-14T10:13:58.913Z,25.06
2022-08-14T10:19:05.250Z,25.29
2022-08-14T10:24:11.171Z,25.71
2022-08-14T10:29:32.171Z,25.91
2022-08-14T10:34:38.767Z,25.79
2022-08-14T10:40:01.461Z,26.21
2022-08-14T10:45:21.645Z,26.16
2022-08-14T10:50:32.749Z,25.58
2022-08-14T10:55:45.566Z,25.52
2022-08-14T11:00:58.611Z,25.62
2022-08-14T11:06:14.802Z,26.18
2022-08-14T11:11:19.850Z,25.79
2022-08-14T11:16:27.146Z,25.37
2022-08-14T11:21:34.122Z,25.06
2022-08-14T11:26:38.985Z,25.24
2022-08-14T11:31:43.595Z,25.63
2022-08-14T11:37:02.530Z,25.94
2022-08-14T11:42:56.141Z,26.17
2022-08-14T11:48:13.041Z,26.48
2022-08-14T11:53:20.477Z,26.66
2022-08-14T11:58:28.498Z,26.13
2022-08-14T12:03:51.200Z,25.68
2022-08-14T12:08:59.784Z,26.09
2022-08-14T12:14:08.835Z,26.20
2022-08-14T12:19:51.460Z,26.25
2022-08-14T12:24:57.422Z,26.43
2022-08-14T12:30:01.339Z,26.46
2022-08-14T12:35:07.265Z,26.55
2022-08-14T12:40:19.636Z,26.65
2022-08-14T12:45:33.521Z,26.82
2022-08-14T12:50:40.838Z,26.76
2022-08-14T12:56:22.512Z,27.11
2022-08-14T13:01:20.759Z,27.29
2022-08-14T13:06:27.496Z,27.32
2022-08-14T13:11:36.820Z,27.01
2022-08-14T13:16:44.572Z,26.91
2022-08-14T13:22:04.986Z,27.08
2022-08-14T13:27:13.334Z,27.10
2022-08-14T13:32:18.255Z,27.40
2022-08-14T13:37:22.993Z,27.26
2022-08-14T13:42:31.650Z,27.15
2022-08-14T13:47:35.717Z,27.16
2022-08-14T13:52:52.765Z,26.87
2022-08-14T13:58:05.154Z,26.75
2022-08-14T14:03:09.279Z,26.96
2022-08-14T14:08:18.851Z,27.25
2022-08-14T14:13:41.875Z,27.32
2022-08-14T14:18:52.348Z,27.56
2022-08-14T14:23:58.265Z,27.43
2022-08-14T14:29:03.140Z,27.61
2022-08-14T14:34:12.700Z,27.53
2022-08-14T14:39:35.414Z,27.40
2022-08-14T14:44:42.441Z,27.30
2022-08-14T14:49:54.800Z,27.45
2022-08-14T14:55:00.151Z,27.60
2022-08-14T15:00:05.385Z,27.81
2022-08-14T15:05:09.731Z,27.78
2022-08-14T15:10:27.964Z,27.73
2022-08-14T15:15:36.947Z,27.69
2022-08-14T15:20:42.038Z,27.66
2022-08-14T15:25:52.284Z,27.67
2022-08-14T15:30:58.970Z,27.50
2022-08-14T15:36:04.155Z,27.41
2022-08-14T15:41:08.787Z,27.49
2022-08-14T15:46:41.126Z,27.56
2022-08-14T15:51:35.163Z,27.45
2022-08-14T15:56:46.673Z,27.40
2022-08-14T16:01:54.565Z,27.39
2022-08-14T16:06:58.162Z,27.34
2022-08-14T16:12:02.789Z,27.24
2022-08-14T16:17:09.304Z,27.37
2022-08-14T16:22:57.426Z,27.39
2022-08-14T16:33:05.697Z,27.45
2022-08-14T16:38:19.850Z,27.45
2022-08-14T16:40:24.432Z,27.40
2022-08-14T16:43:35.013Z,27.35
2022-08-14T16:48:58.005Z,27.14
2022-08-14T16:54:03.553Z,27.01
2022-08-14T16:59:30.492Z,26.93
2022-08-14T17:04:49.367Z,26.83
2022-08-14T17:09:54.728Z,26.84
2022-08-14T17:15:09.887Z,26.77
2022-08-14T17:20:39.217Z,26.67
2022-08-14T17:25:38.023Z,26.57
2022-08-14T17:30:51.382Z,26.48
2022-08-14T17:36:09.838Z,26.28
2022-08-14T17:41:23.728Z,26.17
2022-08-14T17:46:43.578Z,26.04
2022-08-14T17:52:07.807Z,25.89
2022-08-14T17:57:28.413Z,25.67
2022-08-14T18:02:38.250Z,25.47
2022-08-14T18:08:00.197Z,25.35
2022-08-14T18:13:05.467Z,25.12
2022-08-14T18:18:13.594Z,24.99
2022-08-14T18:23:19.340Z,24.92
2022-08-14T18:28:45.045Z,24.87
2022-08-14T18:33:56.234Z,24.75
2022-08-14T18:39:21.145Z,24.57
2022-08-14T18:45:12.940Z,24.41
2022-08-14T18:50:27.346Z,24.41
2022-08-14T18:55:54.037Z,24.36
2022-08-14T19:00:59.311Z,24.30
2022-08-14T19:06:05.930Z,24.18
2022-08-14T19:11:45.718Z,24.06
2022-08-14T19:16:54.242Z,23.97
2022-08-14T19:21:59.286Z,23.91
2022-08-14T19:27:19.302Z,23.76
2022-08-14T19:32:41.065Z,23.72
2022-08-14T19:37:48.452Z,23.68
2022-08-14T19:42:58.310Z,23.57
2022-08-14T19:48:02.732Z,23.47
2022-08-14T19:53:11.628Z,23.44
2022-08-14T19:58:26.023Z,23.42
2022-08-14T20:04:00.108Z,23.35
2022-08-14T20:11:07.902Z,23.18
2022-08-14T20:14:31.554Z,23.06
2022-08-14T20:19:41.364Z,22.98
2022-08-14T20:24:47.410Z,22.87
2022-08-14T20:30:34.256Z,22.85
2022-08-14T20:35:36.466Z,22.68
2022-08-14T20:40:50.547Z,22.57
2022-08-14T20:45:53.780Z,22.37
2022-08-14T20:50:58.796Z,22.22
2022-08-14T20:56:28.909Z,22.14
2022-08-14T21:01:36.611Z,22.16
2022-08-14T21:07:22.952Z,22.24
2022-08-14T21:12:04.944Z,22.07
2022-08-14T21:17:09.559Z,22.12
2022-08-14T21:22:13.354Z,22.11
2022-08-14T21:27:21.666Z,22.14
2022-08-14T21:32:47.127Z,21.95
2022-08-14T21:37:54.427Z,21.94
2022-08-14T21:42:59.038Z,21.99
2022-08-14T21:48:10.739Z,21.95
2022-08-14T21:53:15.313Z,21.77
2022-08-14T21:58:53.919Z,21.64
2022-08-14T22:03:44.949Z,21.63
2022-08-14T22:08:52.944Z,21.73
2022-08-14T22:13:56.560Z,21.77
2022-08-14T22:19:11.207Z,21.69
2022-08-14T22:24:25.941Z,21.44
2022-08-14T22:29:42.735Z,21.30
2022-08-14T22:34:48.665Z,21.14
2022-08-14T22:40:53.925Z,21.06
2022-08-14T22:45:15.217Z,20.96
2022-08-14T22:50:31.016Z,20.83
2022-08-14T22:55:36.493Z,20.63
2022-08-14T23:00:40.456Z,20.66
2022-08-14T23:05:51.778Z,20.63
2022-08-14T23:10:56.113Z,20.59
2022-08-14T23:15:59.148Z,20.50
2022-08-14T23:21:03.981Z,20.51
2022-08-14T23:26:49.570Z,20.48
2022-08-14T23:31:36.183Z,20.47
2022-08-14T23:36:53.039Z,20.37
2022-08-14T23:42:02.526Z,20.35
2022-08-14T23:47:11.967Z,20.41
2022-08-14T23:52:55.804Z,20.25
2022-08-14T23:58:00.659Z,20.13
